Albertville, Wisconsin
Current Conditions -  °F | °C
As of 1:20 PM on Thursday 23 Oct 2014 (Local Time) from KLUM Reporting Station
Haze Haze  
Wind Chill: 52°   Ceiling: 300
Heat Index: 52°   Visibility: 2mi
Dew Point: 51°   Wind: 6mph
Humidity: 95%   Direction: 200°SSW
Pressure: 30.02"   Gusts: NA
Location:  45.0099°N, 91.7075°W
Report Text: KLUM 231820Z AUTO 20005KT 2SM BR OVC003 11/10 A3002 RMK AO2 T01100103
Loading
Personal Weather Stations






























Interactive Weather Map
Tropical Storm Tracking
New forecast layout! Learn more

10-Day Weather Forecast

Advertisements
Track Severe Weather on mobile